sensor_id;sensor_type;location;lat;lon;timestamp;temperature;humidity
5554;DHT22;2800;49.528;8.666;2022-12-05T00:00:10;3.10;99.90
5554;DHT22;2800;49.528;8.666;2022-12-05T00:02:36;3.10;99.90
5554;DHT22;2800;49.528;8.666;2022-12-05T00:05:02;3.10;99.90
5554;DHT22;2800;49.528;8.666;2022-12-05T00:07:28;3.00;99.90
5554;DHT22;2800;49.528;8.666;2022-12-05T00:09:54;2.90;99.90
5554;DHT22;2800;49.528;8.666;2022-12-05T00:12:19;2.90;99.90
5554;DHT22;2800;49.528;8.666;2022-12-05T00:14:45;2.90;99.90
5554;DHT22;2800;49.528;8.666;2022-12-05T00:17:10;2.90;99.90
5554;DHT22;2800;49.528;8.666;2022-12-05T00:19:35;3.00;99.90
5554;DHT22;2800;49.528;8.666;2022-12-05T00:22:01;2.90;99.90
5554;DHT22;2800;49.528;8.666;2022-12-05T00:24:26;2.90;99.90
5554;DHT22;2800;49.528;8.666;2022-12-05T00:26:52;3.00;99.90
5554;DHT22;2800;49.528;8.666;2022-12-05T00:29:17;3.10;99.90
5554;DHT22;2800;49.528;8.666;2022-12-05T00:31:43;3.10;99.90
5554;DHT22;2800;49.528;8.666;2022-12-05T00:34:08;3.10;99.90
5554;DHT22;2800;49.528;8.666;2022-12-05T00:36:35;2.90;99.90
5554;DHT22;2800;49.528;8.666;2022-12-05T00:39:04;2.80;99.90
5554;DHT22;2800;49.528;8.666;2022-12-05T00:41:30;2.80;99.90
5554;DHT22;2800;49.528;8.666;2022-12-05T00:43:58;2.80;99.90
5554;DHT22;2800;49.528;8.666;2022-12-05T00:46:26;2.80;99.90
5554;DHT22;2800;49.528;8.666;2022-12-05T00:48:53;2.70;99.90
5554;DHT22;2800;49.528;8.666;2022-12-05T00:51:22;2.70;99.90
5554;DHT22;2800;49.528;8.666;2022-12-05T00:53:49;2.60;99.90
5554;DHT22;2800;49.528;8.666;2022-12-05T00:56:17;2.80;99.90
5554;DHT22;2800;49.528;8.666;2022-12-05T00:58:43;2.80;99.90
5554;DHT22;2800;49.528;8.666;2022-12-05T01:01:14;2.70;99.90
5554;DHT22;2800;49.528;8.666;2022-12-05T01:03:41;2.80;99.90
5554;DHT22;2800;49.528;8.666;2022-12-05T01:06:07;2.80;99.90
5554;DHT22;2800;49.528;8.666;2022-12-05T01:08:34;2.70;99.90
5554;DHT22;2800;49.528;8.666;2022-12-05T01:11:00;2.70;99.90
5554;DHT22;2800;49.528;8.666;2022-12-05T01:13:26;2.70;99.90
5554;DHT22;2800;49.528;8.666;2022-12-05T01:15:52;2.70;99.90
5554;DHT22;2800;49.528;8.666;2022-12-05T01:18:18;3.00;99.90
5554;DHT22;2800;49.528;8.666;2022-12-05T01:20:44;2.60;99.90
5554;DHT22;2800;49.528;8.666;2022-12-05T01:23:10;2.60;99.90
5554;DHT22;2800;49.528;8.666;2022-12-05T01:25:40;2.60;99.90
5554;DHT22;2800;49.528;8.666;2022-12-05T01:28:06;2.60;99.90
5554;DHT22;2800;49.528;8.666;2022-12-05T01:30:32;2.60;99.90
5554;DHT22;2800;49.528;8.666;2022-12-05T01:32:58;2.70;99.90
5554;DHT22;2800;49.528;8.666;2022-12-05T01:35:24;2.80;99.90
5554;DHT22;2800;49.528;8.666;2022-12-05T01:37:50;2.70;99.90
5554;DHT22;2800;49.528;8.666;2022-12-05T01:40:16;2.70;99.90
5554;DHT22;2800;49.528;8.666;2022-12-05T01:42:41;2.70;99.90
5554;DHT22;2800;49.528;8.666;2022-12-05T01:45:14;2.70;99.90
5554;DHT22;2800;49.528;8.666;2022-12-05T01:47:40;2.70;99.90
5554;DHT22;2800;49.528;8.666;2022-12-05T01:50:07;2.70;99.90
5554;DHT22;2800;49.528;8.666;2022-12-05T01:52:33;2.70;99.90
5554;DHT22;2800;49.528;8.666;2022-12-05T01:55:06;2.80;99.90
5554;DHT22;2800;49.528;8.666;2022-12-05T01:57:32;2.80;99.90
5554;DHT22;2800;49.528;8.666;2022-12-05T02:00:20;2.70;99.90
5554;DHT22;2800;49.528;8.666;2022-12-05T02:02:51;2.80;99.90
5554;DHT22;2800;49.528;8.666;2022-12-05T02:05:28;2.80;99.90
5554;DHT22;2800;49.528;8.666;2022-12-05T02:07:55;2.80;99.90
5554;DHT22;2800;49.528;8.666;2022-12-05T02:10:22;2.80;99.90
5554;DHT22;2800;49.528;8.666;2022-12-05T02:12:49;2.80;99.90
5554;DHT22;2800;49.528;8.666;2022-12-05T02:20:44;2.80;99.90
5554;DHT22;2800;49.528;8.666;2022-12-05T02:26:19;2.80;99.90
5554;DHT22;2800;49.528;8.666;2022-12-05T02:31:43;2.70;99.90
5554;DHT22;2800;49.528;8.666;2022-12-05T02:34:23;2.80;99.90
5554;DHT22;2800;49.528;8.666;2022-12-05T02:37:04;2.70;99.90
5554;DHT22;2800;49.528;8.666;2022-12-05T02:39:42;2.70;99.90
5554;DHT22;2800;49.528;8.666;2022-12-05T02:45:03;2.70;99.90
5554;DHT22;2800;49.528;8.666;2022-12-05T02:47:34;2.80;99.90
5554;DHT22;2800;49.528;8.666;2022-12-05T02:50:02;2.80;99.90
5554;DHT22;2800;49.528;8.666;2022-12-05T02:52:29;2.90;99.90
5554;DHT22;2800;49.528;8.666;2022-12-05T02:54:56;2.90;99.90
5554;DHT22;2800;49.528;8.666;2022-12-05T02:57:22;2.90;99.90
5554;DHT22;2800;49.528;8.666;2022-12-05T02:59:50;2.90;99.90
5554;DHT22;2800;49.528;8.666;2022-12-05T03:02:29;2.90;99.90
5554;DHT22;2800;49.528;8.666;2022-12-05T03:04:58;2.80;99.90
5554;DHT22;2800;49.528;8.666;2022-12-05T03:07:28;2.90;99.90
5554;DHT22;2800;49.528;8.666;2022-12-05T03:09:59;2.90;99.90
5554;DHT22;2800;49.528;8.666;2022-12-05T03:12:31;2.80;99.90
5554;DHT22;2800;49.528;8.666;2022-12-05T03:15:13;2.80;99.90
5554;DHT22;2800;49.528;8.666;2022-12-05T03:17:48;2.90;99.90
5554;DHT22;2800;49.528;8.666;2022-12-05T03:20:24;2.80;99.90
5554;DHT22;2800;49.528;8.666;2022-12-05T03:22:57;2.80;99.90
5554;DHT22;2800;49.528;8.666;2022-12-05T03:25:32;2.80;99.90
5554;DHT22;2800;49.528;8.666;2022-12-05T03:28:09;2.80;99.90
5554;DHT22;2800;49.528;8.666;2022-12-05T03:30:38;2.90;99.90
5554;DHT22;2800;49.528;8.666;2022-12-05T03:33:12;2.90;99.90
5554;DHT22;2800;49.528;8.666;2022-12-05T03:36:19;2.90;99.90
5554;DHT22;2800;49.528;8.666;2022-12-05T03:38:49;2.90;99.90
5554;DHT22;2800;49.528;8.666;2022-12-05T03:41:24;2.90;99.90
5554;DHT22;2800;49.528;8.666;2022-12-05T03:46:26;2.90;99.90
5554;DHT22;2800;49.528;8.666;2022-12-05T03:51:22;2.90;99.90
5554;DHT22;2800;49.528;8.666;2022-12-05T03:53:58;2.90;99.90
5554;DHT22;2800;49.528;8.666;2022-12-05T03:56:29;2.90;99.90
5554;DHT22;2800;49.528;8.666;2022-12-05T03:59:10;2.90;99.90
5554;DHT22;2800;49.528;8.666;2022-12-05T04:01:39;2.90;99.90
5554;DHT22;2800;49.528;8.666;2022-12-05T04:04:13;2.90;99.90
5554;DHT22;2800;49.528;8.666;2022-12-05T04:06:42;2.90;99.90
5554;DHT22;2800;49.528;8.666;2022-12-05T04:09:16;2.90;99.90
5554;DHT22;2800;49.528;8.666;2022-12-05T04:11:46;2.90;99.90
5554;DHT22;2800;49.528;8.666;2022-12-05T04:14:15;2.90;99.90
5554;DHT22;2800;49.528;8.666;2022-12-05T04:16:57;2.80;99.90
5554;DHT22;2800;49.528;8.666;2022-12-05T04:19:37;2.80;99.90
5554;DHT22;2800;49.528;8.666;2022-12-05T04:22:24;2.80;99.90
5554;DHT22;2800;49.528;8.666;2022-12-05T04:24:51;2.80;99.90
5554;DHT22;2800;49.528;8.666;2022-12-05T04:30:10;2.90;99.90
5554;DHT22;2800;49.528;8.666;2022-12-05T04:35:28;2.90;99.90
5554;DHT22;2800;49.528;8.666;2022-12-05T04:38:01;2.90;99.90
5554;DHT22;2800;49.528;8.666;2022-12-05T04:40:34;2.90;99.90
5554;DHT22;2800;49.528;8.666;2022-12-05T04:43:03;2.80;99.90
5554;DHT22;2800;49.528;8.666;2022-12-05T04:45:32;2.90;99.90
5554;DHT22;2800;49.528;8.666;2022-12-05T04:48:01;2.90;99.90
5554;DHT22;2800;49.528;8.666;2022-12-05T04:50:30;2.90;99.90
5554;DHT22;2800;49.528;8.666;2022-12-05T04:52:58;2.90;99.90
5554;DHT22;2800;49.528;8.666;2022-12-05T04:55:25;2.90;99.90
5554;DHT22;2800;49.528;8.666;2022-12-05T04:58:00;2.90;99.90
5554;DHT22;2800;49.528;8.666;2022-12-05T05:00:29;3.00;99.90
5554;DHT22;2800;49.528;8.666;2022-12-05T05:03:05;3.00;99.90
5554;DHT22;2800;49.528;8.666;2022-12-05T05:05:34;3.00;99.90
5554;DHT22;2800;49.528;8.666;2022-12-05T05:08:00;3.10;99.90
5554;DHT22;2800;49.528;8.666;2022-12-05T05:10:36;3.10;99.90
5554;DHT22;2800;49.528;8.666;2022-12-05T05:13:03;3.00;99.90
5554;DHT22;2800;49.528;8.666;2022-12-05T05:15:29;3.00;99.90
5554;DHT22;2800;49.528;8.666;2022-12-05T05:17:54;3.10;99.90
5554;DHT22;2800;49.528;8.666;2022-12-05T05:20:20;3.00;99.90
5554;DHT22;2800;49.528;8.666;2022-12-05T05:22:50;3.00;99.90
5554;DHT22;2800;49.528;8.666;2022-12-05T05:25:15;2.90;99.90
5554;DHT22;2800;49.528;8.666;2022-12-05T05:27:41;3.00;99.90
5554;DHT22;2800;49.528;8.666;2022-12-05T05:30:07;2.90;99.90
5554;DHT22;2800;49.528;8.666;2022-12-05T05:32:33;3.00;99.90
5554;DHT22;2800;49.528;8.666;2022-12-05T05:34:59;2.90;99.90
5554;DHT22;2800;49.528;8.666;2022-12-05T05:37:24;3.00;99.90
5554;DHT22;2800;49.528;8.666;2022-12-05T05:39:50;3.00;99.90
5554;DHT22;2800;49.528;8.666;2022-12-05T05:42:15;3.00;99.90
5554;DHT22;2800;49.528;8.666;2022-12-05T05:44:41;3.00;99.90
5554;DHT22;2800;49.528;8.666;2022-12-05T05:47:06;3.00;99.90
5554;DHT22;2800;49.528;8.666;2022-12-05T05:49:32;3.00;99.90
5554;DHT22;2800;49.528;8.666;2022-12-05T05:51:57;3.00;99.90
5554;DHT22;2800;49.528;8.666;2022-12-05T05:54:23;3.00;99.90
5554;DHT22;2800;49.528;8.666;2022-12-05T05:56:48;3.00;99.90
5554;DHT22;2800;49.528;8.666;2022-12-05T05:59:13;3.10;99.90
5554;DHT22;2800;49.528;8.666;2022-12-05T06:01:39;3.10;99.90
5554;DHT22;2800;49.528;8.666;2022-12-05T06:04:04;3.20;99.90
5554;DHT22;2800;49.528;8.666;2022-12-05T06:06:32;3.10;99.90
5554;DHT22;2800;49.528;8.666;2022-12-05T06:08:57;3.20;99.90
5554;DHT22;2800;49.528;8.666;2022-12-05T06:11:26;3.20;99.90
5554;DHT22;2800;49.528;8.666;2022-12-05T06:13:56;3.20;99.90
5554;DHT22;2800;49.528;8.666;2022-12-05T06:16:22;3.20;99.90
5554;DHT22;2800;49.528;8.666;2022-12-05T06:18:48;3.20;99.90
5554;DHT22;2800;49.528;8.666;2022-12-05T06:21:14;3.20;99.90
5554;DHT22;2800;49.528;8.666;2022-12-05T06:23:40;3.10;99.90
5554;DHT22;2800;49.528;8.666;2022-12-05T06:26:10;3.20;99.90
5554;DHT22;2800;49.528;8.666;2022-12-05T06:28:36;3.20;99.90
5554;DHT22;2800;49.528;8.666;2022-12-05T06:31:18;3.20;99.90
5554;DHT22;2800;49.528;8.666;2022-12-05T06:33:44;3.20;99.90
5554;DHT22;2800;49.528;8.666;2022-12-05T06:36:15;3.20;99.90
5554;DHT22;2800;49.528;8.666;2022-12-05T06:38:41;4.40;99.90
5554;DHT22;2800;49.528;8.666;2022-12-05T06:41:08;3.20;99.90
5554;DHT22;2800;49.528;8.666;2022-12-05T06:43:34;3.20;99.90
5554;DHT22;2800;49.528;8.666;2022-12-05T06:46:10;3.20;99.90
5554;DHT22;2800;49.528;8.666;2022-12-05T06:48:36;3.20;99.90
5554;DHT22;2800;49.528;8.666;2022-12-05T06:51:01;3.30;99.90
5554;DHT22;2800;49.528;8.666;2022-12-05T06:53:28;3.30;99.90
5554;DHT22;2800;49.528;8.666;2022-12-05T06:55:55;3.30;99.90
5554;DHT22;2800;49.528;8.666;2022-12-05T06:58:21;3.30;99.90
5554;DHT22;2800;49.528;8.666;2022-12-05T07:00:47;3.40;99.90
5554;DHT22;2800;49.528;8.666;2022-12-05T07:03:31;3.40;99.90
5554;DHT22;2800;49.528;8.666;2022-12-05T07:05:59;3.40;99.90
5554;DHT22;2800;49.528;8.666;2022-12-05T07:08:25;3.40;99.90
5554;DHT22;2800;49.528;8.666;2022-12-05T07:10:51;3.40;99.90
5554;DHT22;2800;49.528;8.666;2022-12-05T07:13:17;3.40;99.90
5554;DHT22;2800;49.528;8.666;2022-12-05T07:15:45;3.30;99.90
5554;DHT22;2800;49.528;8.666;2022-12-05T07:18:11;3.30;99.90
5554;DHT22;2800;49.528;8.666;2022-12-05T07:20:36;3.30;99.90
5554;DHT22;2800;49.528;8.666;2022-12-05T07:23:02;3.30;99.90
5554;DHT22;2800;49.528;8.666;2022-12-05T07:25:27;3.30;99.90
5554;DHT22;2800;49.528;8.666;2022-12-05T07:27:53;3.30;99.90
5554;DHT22;2800;49.528;8.666;2022-12-05T07:30:18;3.30;99.90
5554;DHT22;2800;49.528;8.666;2022-12-05T07:32:44;3.40;99.90
5554;DHT22;2800;49.528;8.666;2022-12-05T07:35:09;3.30;99.90
5554;DHT22;2800;49.528;8.666;2022-12-05T07:37:35;3.40;99.90
5554;DHT22;2800;49.528;8.666;2022-12-05T07:40:00;3.40;99.90
5554;DHT22;2800;49.528;8.666;2022-12-05T07:42:26;3.40;99.90
5554;DHT22;2800;49.528;8.666;2022-12-05T07:44:51;3.40;99.90
5554;DHT22;2800;49.528;8.666;2022-12-05T07:47:17;3.40;99.90
5554;DHT22;2800;49.528;8.666;2022-12-05T07:49:42;3.40;99.90
5554;DHT22;2800;49.528;8.666;2022-12-05T07:52:08;3.40;99.90
5554;DHT22;2800;49.528;8.666;2022-12-05T07:54:34;3.40;99.90
5554;DHT22;2800;49.528;8.666;2022-12-05T07:57:00;3.40;99.90
5554;DHT22;2800;49.528;8.666;2022-12-05T07:59:25;3.40;99.90
5554;DHT22;2800;49.528;8.666;2022-12-05T08:01:51;3.50;99.90
5554;DHT22;2800;49.528;8.666;2022-12-05T08:04:16;3.40;99.90
5554;DHT22;2800;49.528;8.666;2022-12-05T08:06:42;3.50;99.90
5554;DHT22;2800;49.528;8.666;2022-12-05T08:09:07;3.50;99.90
5554;DHT22;2800;49.528;8.666;2022-12-05T08:11:33;3.50;99.90
5554;DHT22;2800;49.528;8.666;2022-12-05T08:14:00;3.50;99.90
5554;DHT22;2800;49.528;8.666;2022-12-05T08:16:28;3.50;99.90
5554;DHT22;2800;49.528;8.666;2022-12-05T08:18:58;3.50;99.90
5554;DHT22;2800;49.528;8.666;2022-12-05T08:21:24;3.50;99.90
5554;DHT22;2800;49.528;8.666;2022-12-05T08:23:50;3.50;99.90
5554;DHT22;2800;49.528;8.666;2022-12-05T08:26:28;3.50;99.90
5554;DHT22;2800;49.528;8.666;2022-12-05T08:29:03;3.50;99.90
5554;DHT22;2800;49.528;8.666;2022-12-05T08:31:32;3.60;99.90
5554;DHT22;2800;49.528;8.666;2022-12-05T08:33:59;3.60;99.90
5554;DHT22;2800;49.528;8.666;2022-12-05T08:36:29;3.70;99.90
5554;DHT22;2800;49.528;8.666;2022-12-05T08:39:00;3.70;99.90
5554;DHT22;2800;49.528;8.666;2022-12-05T08:41:26;3.60;99.90
5554;DHT22;2800;49.528;8.666;2022-12-05T08:43:55;3.60;99.90
5554;DHT22;2800;49.528;8.666;2022-12-05T08:46:21;3.60;99.90
5554;DHT22;2800;49.528;8.666;2022-12-05T08:48:46;3.60;99.90
5554;DHT22;2800;49.528;8.666;2022-12-05T08:51:12;3.60;99.90
5554;DHT22;2800;49.528;8.666;2022-12-05T08:53:39;3.70;99.90
5554;DHT22;2800;49.528;8.666;2022-12-05T08:56:07;3.70;99.90
5554;DHT22;2800;49.528;8.666;2022-12-05T08:58:33;3.80;99.90
5554;DHT22;2800;49.528;8.666;2022-12-05T09:01:12;3.70;99.90
5554;DHT22;2800;49.528;8.666;2022-12-05T09:03:39;3.70;99.90
5554;DHT22;2800;49.528;8.666;2022-12-05T09:06:10;3.80;99.90
5554;DHT22;2800;49.528;8.666;2022-12-05T09:08:36;3.80;99.90
5554;DHT22;2800;49.528;8.666;2022-12-05T09:11:11;3.90;99.90
5554;DHT22;2800;49.528;8.666;2022-12-05T09:13:37;3.90;99.90
5554;DHT22;2800;49.528;8.666;2022-12-05T09:16:18;4.00;99.90
5554;DHT22;2800;49.528;8.666;2022-12-05T09:18:44;4.00;99.90
5554;DHT22;2800;49.528;8.666;2022-12-05T09:21:13;4.10;99.90
5554;DHT22;2800;49.528;8.666;2022-12-05T09:23:39;4.10;99.90
5554;DHT22;2800;49.528;8.666;2022-12-05T09:26:06;4.20;99.90
5554;DHT22;2800;49.528;8.666;2022-12-05T09:28:32;4.20;99.90
5554;DHT22;2800;49.528;8.666;2022-12-05T09:31:04;4.20;99.90
5554;DHT22;2800;49.528;8.666;2022-12-05T09:33:32;4.20;99.90
5554;DHT22;2800;49.528;8.666;2022-12-05T09:36:02;4.30;99.90
5554;DHT22;2800;49.528;8.666;2022-12-05T09:38:28;4.30;99.90
5554;DHT22;2800;49.528;8.666;2022-12-05T09:47:28;4.20;99.90
5554;DHT22;2800;49.528;8.666;2022-12-05T09:50:03;4.20;99.90
5554;DHT22;2800;49.528;8.666;2022-12-05T09:55:32;4.20;99.90
5554;DHT22;2800;49.528;8.666;2022-12-05T09:58:00;4.20;99.90
5554;DHT22;2800;49.528;8.666;2022-12-05T10:00:28;4.10;99.90
5554;DHT22;2800;49.528;8.666;2022-12-05T10:06:11;4.10;99.90
5554;DHT22;2800;49.528;8.666;2022-12-05T10:08:48;4.10;99.90
5554;DHT22;2800;49.528;8.666;2022-12-05T10:11:27;4.20;99.90
5554;DHT22;2800;49.528;8.666;2022-12-05T10:16:48;4.20;99.90
5554;DHT22;2800;49.528;8.666;2022-12-05T10:19:38;4.20;99.90
5554;DHT22;2800;49.528;8.666;2022-12-05T10:22:21;4.20;99.90
5554;DHT22;2800;49.528;8.666;2022-12-05T10:24:51;4.20;99.90
5554;DHT22;2800;49.528;8.666;2022-12-05T10:27:35;4.20;99.90
5554;DHT22;2800;49.528;8.666;2022-12-05T10:30:12;4.20;99.90
5554;DHT22;2800;49.528;8.666;2022-12-05T10:32:55;4.20;99.90
5554;DHT22;2800;49.528;8.666;2022-12-05T10:35:34;4.30;99.90
5554;DHT22;2800;49.528;8.666;2022-12-05T10:38:04;4.30;99.90
5554;DHT22;2800;49.528;8.666;2022-12-05T10:40:36;4.30;99.90
5554;DHT22;2800;49.528;8.666;2022-12-05T10:43:04;4.30;99.90
5554;DHT22;2800;49.528;8.666;2022-12-05T10:45:30;4.40;99.90
5554;DHT22;2800;49.528;8.666;2022-12-05T10:47:56;4.40;99.90
5554;DHT22;2800;49.528;8.666;2022-12-05T10:50:31;4.40;99.90
5554;DHT22;2800;49.528;8.666;2022-12-05T10:53:00;4.40;99.90
5554;DHT22;2800;49.528;8.666;2022-12-05T10:55:35;4.30;99.90
5554;DHT22;2800;49.528;8.666;2022-12-05T10:58:20;4.30;99.90
5554;DHT22;2800;49.528;8.666;2022-12-05T11:00:50;4.30;99.90
5554;DHT22;2800;49.528;8.666;2022-12-05T11:03:37;4.30;99.90
5554;DHT22;2800;49.528;8.666;2022-12-05T11:06:22;4.30;99.90
5554;DHT22;2800;49.528;8.666;2022-12-05T11:08:53;4.20;99.90
5554;DHT22;2800;49.528;8.666;2022-12-05T11:11:30;4.20;99.90
5554;DHT22;2800;49.528;8.666;2022-12-05T11:14:21;4.20;99.90
5554;DHT22;2800;49.528;8.666;2022-12-05T11:16:53;4.20;99.90
5554;DHT22;2800;49.528;8.666;2022-12-05T11:19:29;4.20;99.90
5554;DHT22;2800;49.528;8.666;2022-12-05T11:21:56;4.20;99.90
5554;DHT22;2800;49.528;8.666;2022-12-05T11:24:32;4.20;99.90
5554;DHT22;2800;49.528;8.666;2022-12-05T11:27:17;4.20;99.90
5554;DHT22;2800;49.528;8.666;2022-12-05T11:32:37;4.30;99.90
5554;DHT22;2800;49.528;8.666;2022-12-05T11:35:17;4.30;99.90
5554;DHT22;2800;49.528;8.666;2022-12-05T11:37:59;4.40;99.90
5554;DHT22;2800;49.528;8.666;2022-12-05T11:40:56;4.40;99.90
5554;DHT22;2800;49.528;8.666;2022-12-05T11:43:28;4.40;99.90
5554;DHT22;2800;49.528;8.666;2022-12-05T11:49:02;4.40;99.90
5554;DHT22;2800;49.528;8.666;2022-12-05T11:57:02;4.50;99.90
5554;DHT22;2800;49.528;8.666;2022-12-05T12:00:02;4.50;99.90
5554;DHT22;2800;49.528;8.666;2022-12-05T12:08:22;4.60;99.90
5554;DHT22;2800;49.528;8.666;2022-12-05T12:11:12;4.60;99.90
5554;DHT22;2800;49.528;8.666;2022-12-05T12:22:20;4.70;99.90
5554;DHT22;2800;49.528;8.666;2022-12-05T12:30:19;4.70;99.90
5554;DHT22;2800;49.528;8.666;2022-12-05T12:35:29;4.60;99.90
5554;DHT22;2800;49.528;8.666;2022-12-05T12:40:50;4.70;99.90
5554;DHT22;2800;49.528;8.666;2022-12-05T12:43:40;4.70;99.90
5554;DHT22;2800;49.528;8.666;2022-12-05T12:46:41;4.60;99.90
5554;DHT22;2800;49.528;8.666;2022-12-05T12:52:00;4.70;99.90
5554;DHT22;2800;49.528;8.666;2022-12-05T12:57:10;4.80;99.90
5554;DHT22;2800;49.528;8.666;2022-12-05T13:00:37;4.80;99.90
5554;DHT22;2800;49.528;8.666;2022-12-05T13:02:48;4.90;99.90
5554;DHT22;2800;49.528;8.666;2022-12-05T13:05:25;5.00;99.90
5554;DHT22;2800;49.528;8.666;2022-12-05T13:08:12;5.10;99.90
5554;DHT22;2800;49.528;8.666;2022-12-05T13:10:41;5.20;99.90
5554;DHT22;2800;49.528;8.666;2022-12-05T13:13:13;5.20;99.90
5554;DHT22;2800;49.528;8.666;2022-12-05T13:15:55;5.30;99.90
5554;DHT22;2800;49.528;8.666;2022-12-05T13:18:24;5.30;99.90
5554;DHT22;2800;49.528;8.666;2022-12-05T13:21:01;5.20;99.90
5554;DHT22;2800;49.528;8.666;2022-12-05T13:23:32;5.20;99.90
5554;DHT22;2800;49.528;8.666;2022-12-05T13:25:59;5.30;99.90
5554;DHT22;2800;49.528;8.666;2022-12-05T13:28:31;5.20;99.90
5554;DHT22;2800;49.528;8.666;2022-12-05T13:30:59;5.20;99.90
5554;DHT22;2800;49.528;8.666;2022-12-05T13:33:41;5.20;99.90
5554;DHT22;2800;49.528;8.666;2022-12-05T13:36:19;5.10;99.90
5554;DHT22;2800;49.528;8.666;2022-12-05T13:39:05;5.10;99.90
5554;DHT22;2800;49.528;8.666;2022-12-05T13:41:53;5.10;99.90
5554;DHT22;2800;49.528;8.666;2022-12-05T13:49:59;5.20;99.90
5554;DHT22;2800;49.528;8.666;2022-12-05T13:52:29;5.10;99.90
5554;DHT22;2800;49.528;8.666;2022-12-05T13:55:08;5.10;99.90
5554;DHT22;2800;49.528;8.666;2022-12-05T14:07:52;5.00;99.90
5554;DHT22;2800;49.528;8.666;2022-12-05T14:10:23;5.00;99.90
5554;DHT22;2800;49.528;8.666;2022-12-05T14:15:44;5.00;99.90
5554;DHT22;2800;49.528;8.666;2022-12-05T14:21:16;4.90;99.90
5554;DHT22;2800;49.528;8.666;2022-12-05T14:27:09;4.90;99.90
5554;DHT22;2800;49.528;8.666;2022-12-05T14:30:16;4.90;99.90
5554;DHT22;2800;49.528;8.666;2022-12-05T14:32:44;4.90;99.90
5554;DHT22;2800;49.528;8.666;2022-12-05T14:35:12;4.90;99.90
5554;DHT22;2800;49.528;8.666;2022-12-05T14:38:00;4.90;99.90
5554;DHT22;2800;49.528;8.666;2022-12-05T14:40:35;4.90;99.90
5554;DHT22;2800;49.528;8.666;2022-12-05T14:45:38;5.00;99.90
5554;DHT22;2800;49.528;8.666;2022-12-05T14:48:27;4.90;99.90
5554;DHT22;2800;49.528;8.666;2022-12-05T14:50:55;5.00;99.90
5554;DHT22;2800;49.528;8.666;2022-12-05T14:53:22;5.00;99.90
5554;DHT22;2800;49.528;8.666;2022-12-05T14:56:13;5.00;99.90
5554;DHT22;2800;49.528;8.666;2022-12-05T15:04:02;5.00;99.90
5554;DHT22;2800;49.528;8.666;2022-12-05T15:06:29;5.00;99.90
5554;DHT22;2800;49.528;8.666;2022-12-05T15:08:57;5.00;99.90
5554;DHT22;2800;49.528;8.666;2022-12-05T15:11:25;5.00;99.90
5554;DHT22;2800;49.528;8.666;2022-12-05T15:14:01;5.00;99.90
5554;DHT22;2800;49.528;8.666;2022-12-05T15:16:30;5.00;99.90
5554;DHT22;2800;49.528;8.666;2022-12-05T15:19:04;5.10;99.90
5554;DHT22;2800;49.528;8.666;2022-12-05T15:21:41;5.10;99.90
5554;DHT22;2800;49.528;8.666;2022-12-05T15:24:15;5.00;99.90
5554;DHT22;2800;49.528;8.666;2022-12-05T15:31:47;5.00;99.90
5554;DHT22;2800;49.528;8.666;2022-12-05T15:37:25;5.00;99.90
5554;DHT22;2800;49.528;8.666;2022-12-05T15:39:56;5.00;99.90
5554;DHT22;2800;49.528;8.666;2022-12-05T15:42:28;5.00;99.90
5554;DHT22;2800;49.528;8.666;2022-12-05T15:50:14;5.00;99.90
5554;DHT22;2800;49.528;8.666;2022-12-05T15:52:49;5.00;99.90
5554;DHT22;2800;49.528;8.666;2022-12-05T15:55:27;5.00;99.90
5554;DHT22;2800;49.528;8.666;2022-12-05T15:58:07;5.00;99.90
5554;DHT22;2800;49.528;8.666;2022-12-05T16:00:35;4.90;99.90
5554;DHT22;2800;49.528;8.666;2022-12-05T16:05:45;4.90;99.90
5554;DHT22;2800;49.528;8.666;2022-12-05T16:08:12;4.80;99.90
5554;DHT22;2800;49.528;8.666;2022-12-05T16:10:37;4.80;99.90
5554;DHT22;2800;49.528;8.666;2022-12-05T16:13:06;4.80;99.90
5554;DHT22;2800;49.528;8.666;2022-12-05T16:15:32;4.80;99.90
5554;DHT22;2800;49.528;8.666;2022-12-05T16:18:00;4.80;99.90
5554;DHT22;2800;49.528;8.666;2022-12-05T16:22:57;4.70;99.90
5554;DHT22;2800;49.528;8.666;2022-12-05T16:25:33;4.70;99.90
5554;DHT22;2800;49.528;8.666;2022-12-05T16:30:34;4.60;99.90
5554;DHT22;2800;49.528;8.666;2022-12-05T16:33:14;4.60;99.90
5554;DHT22;2800;49.528;8.666;2022-12-05T16:38:27;4.60;99.90
5554;DHT22;2800;49.528;8.666;2022-12-05T16:40:58;4.60;99.90
5554;DHT22;2800;49.528;8.666;2022-12-05T16:45:59;4.50;99.90
5554;DHT22;2800;49.528;8.666;2022-12-05T16:48:32;4.50;99.90
5554;DHT22;2800;49.528;8.666;2022-12-05T16:53:35;4.50;99.90
5554;DHT22;2800;49.528;8.666;2022-12-05T16:56:03;4.50;99.90
5554;DHT22;2800;49.528;8.666;2022-12-05T16:58:29;4.50;99.90
5554;DHT22;2800;49.528;8.666;2022-12-05T17:01:04;4.50;99.90
5554;DHT22;2800;49.528;8.666;2022-12-05T17:03:30;4.50;99.90
5554;DHT22;2800;49.528;8.666;2022-12-05T17:05:56;4.40;99.90
5554;DHT22;2800;49.528;8.666;2022-12-05T17:08:23;4.40;99.90
5554;DHT22;2800;49.528;8.666;2022-12-05T17:10:49;4.40;99.90
5554;DHT22;2800;49.528;8.666;2022-12-05T17:13:17;4.40;99.90
5554;DHT22;2800;49.528;8.666;2022-12-05T17:15:43;4.40;99.90
5554;DHT22;2800;49.528;8.666;2022-12-05T17:18:15;4.40;99.90
5554;DHT22;2800;49.528;8.666;2022-12-05T17:20:43;4.40;99.90
5554;DHT22;2800;49.528;8.666;2022-12-05T17:23:12;4.40;99.90
5554;DHT22;2800;49.528;8.666;2022-12-05T17:25:40;4.40;99.90
5554;DHT22;2800;49.528;8.666;2022-12-05T17:28:06;4.40;99.90
5554;DHT22;2800;49.528;8.666;2022-12-05T17:30:31;4.40;99.90
5554;DHT22;2800;49.528;8.666;2022-12-05T17:32:58;4.40;99.90
5554;DHT22;2800;49.528;8.666;2022-12-05T17:35:27;4.40;99.90
5554;DHT22;2800;49.528;8.666;2022-12-05T17:37:53;4.40;99.90
5554;DHT22;2800;49.528;8.666;2022-12-05T17:40:19;4.40;99.90
5554;DHT22;2800;49.528;8.666;2022-12-05T17:42:44;4.40;99.90
5554;DHT22;2800;49.528;8.666;2022-12-05T17:45:12;4.40;99.90
5554;DHT22;2800;49.528;8.666;2022-12-05T17:47:38;4.40;99.90
5554;DHT22;2800;49.528;8.666;2022-12-05T17:50:04;4.40;99.90
5554;DHT22;2800;49.528;8.666;2022-12-05T17:52:30;4.40;99.90
5554;DHT22;2800;49.528;8.666;2022-12-05T17:54:57;4.40;99.90
5554;DHT22;2800;49.528;8.666;2022-12-05T17:57:22;4.40;99.90
5554;DHT22;2800;49.528;8.666;2022-12-05T17:59:48;4.40;99.90
5554;DHT22;2800;49.528;8.666;2022-12-05T18:02:13;4.40;99.90
5554;DHT22;2800;49.528;8.666;2022-12-05T18:04:40;4.40;99.90
5554;DHT22;2800;49.528;8.666;2022-12-05T18:07:05;4.30;99.90
5554;DHT22;2800;49.528;8.666;2022-12-05T18:09:31;4.30;99.90
5554;DHT22;2800;49.528;8.666;2022-12-05T18:11:56;4.40;99.90
5554;DHT22;2800;49.528;8.666;2022-12-05T18:14:22;4.40;99.90
5554;DHT22;2800;49.528;8.666;2022-12-05T18:16:47;4.40;99.90
5554;DHT22;2800;49.528;8.666;2022-12-05T18:19:13;4.40;99.90
5554;DHT22;2800;49.528;8.666;2022-12-05T18:21:38;4.40;99.90
5554;DHT22;2800;49.528;8.666;2022-12-05T18:24:04;4.40;99.90
5554;DHT22;2800;49.528;8.666;2022-12-05T18:26:30;4.40;99.90
5554;DHT22;2800;49.528;8.666;2022-12-05T18:28:55;4.40;99.90
5554;DHT22;2800;49.528;8.666;2022-12-05T18:31:23;4.40;99.90
5554;DHT22;2800;49.528;8.666;2022-12-05T18:33:48;4.40;99.90
5554;DHT22;2800;49.528;8.666;2022-12-05T18:36:17;4.40;99.90
5554;DHT22;2800;49.528;8.666;2022-12-05T18:38:56;4.50;99.90
5554;DHT22;2800;49.528;8.666;2022-12-05T18:41:23;4.50;99.90
5554;DHT22;2800;49.528;8.666;2022-12-05T18:43:49;4.60;99.90
5554;DHT22;2800;49.528;8.666;2022-12-05T18:46:15;4.60;99.90
5554;DHT22;2800;49.528;8.666;2022-12-05T18:48:41;4.60;99.90
5554;DHT22;2800;49.528;8.666;2022-12-05T18:53:33;4.60;99.90
5554;DHT22;2800;49.528;8.666;2022-12-05T18:56:06;4.50;99.90
5554;DHT22;2800;49.528;8.666;2022-12-05T18:58:32;4.50;99.90
5554;DHT22;2800;49.528;8.666;2022-12-05T19:01:25;4.50;99.90
5554;DHT22;2800;49.528;8.666;2022-12-05T19:03:51;4.50;99.90